sensor_id;sensor_type;location;lat;lon;timestamp;temperature;humidity
37594;DHT22;23441;50.856;6.076;2023-04-03T00:01:01;1.50;99.90
37594;DHT22;23441;50.856;6.076;2023-04-03T00:03:27;1.40;99.90
37594;DHT22;23441;50.856;6.076;2023-04-03T00:05:53;1.40;99.90
37594;DHT22;23441;50.856;6.076;2023-04-03T00:08:19;1.40;99.90
37594;DHT22;23441;50.856;6.076;2023-04-03T00:10:45;1.40;99.90
37594;DHT22;23441;50.856;6.076;2023-04-03T00:13:11;1.40;99.90
37594;DHT22;23441;50.856;6.076;2023-04-03T00:15:38;1.30;99.90
37594;DHT22;23441;50.856;6.076;2023-04-03T00:18:04;1.30;99.90
37594;DHT22;23441;50.856;6.076;2023-04-03T00:20:30;1.30;99.90
37594;DHT22;23441;50.856;6.076;2023-04-03T00:22:57;1.30;99.90
37594;DHT22;23441;50.856;6.076;2023-04-03T00:25:23;1.30;99.90
37594;DHT22;23441;50.856;6.076;2023-04-03T00:27:49;1.30;99.90
37594;DHT22;23441;50.856;6.076;2023-04-03T00:30:17;1.30;99.90
37594;DHT22;23441;50.856;6.076;2023-04-03T00:32:43;1.30;99.90
37594;DHT22;23441;50.856;6.076;2023-04-03T00:35:10;1.20;99.90
37594;DHT22;23441;50.856;6.076;2023-04-03T00:37:36;1.10;99.90
37594;DHT22;23441;50.856;6.076;2023-04-03T00:40:02;1.10;99.90
37594;DHT22;23441;50.856;6.076;2023-04-03T00:42:29;1.10;99.90
37594;DHT22;23441;50.856;6.076;2023-04-03T00:47:24;1.10;99.90
37594;DHT22;23441;50.856;6.076;2023-04-03T00:49:52;1.10;99.90
37594;DHT22;23441;50.856;6.076;2023-04-03T00:52:22;1.10;99.90
37594;DHT22;23441;50.856;6.076;2023-04-03T00:54:50;1.10;99.90
37594;DHT22;23441;50.856;6.076;2023-04-03T00:57:17;1.10;99.90
37594;DHT22;23441;50.856;6.076;2023-04-03T00:59:46;1.00;99.90
37594;DHT22;23441;50.856;6.076;2023-04-03T01:02:14;0.90;99.90
37594;DHT22;23441;50.856;6.076;2023-04-03T01:04:42;1.00;99.90
37594;DHT22;23441;50.856;6.076;2023-04-03T01:07:10;1.00;99.90
37594;DHT22;23441;50.856;6.076;2023-04-03T01:09:37;1.00;99.90
37594;DHT22;23441;50.856;6.076;2023-04-03T01:12:16;0.90;99.90
37594;DHT22;23441;50.856;6.076;2023-04-03T01:14:43;0.90;99.90
37594;DHT22;23441;50.856;6.076;2023-04-03T01:25:24;0.80;99.90
37594;DHT22;23441;50.856;6.076;2023-04-03T01:27:50;0.70;99.90
37594;DHT22;23441;50.856;6.076;2023-04-03T01:30:18;0.70;99.90
37594;DHT22;23441;50.856;6.076;2023-04-03T01:32:44;0.60;99.90
37594;DHT22;23441;50.856;6.076;2023-04-03T01:35:10;0.60;99.90
37594;DHT22;23441;50.856;6.076;2023-04-03T01:37:36;0.60;99.90
37594;DHT22;23441;50.856;6.076;2023-04-03T01:40:02;0.60;99.90
37594;DHT22;23441;50.856;6.076;2023-04-03T01:42:28;0.50;99.90
37594;DHT22;23441;50.856;6.076;2023-04-03T01:44:54;0.50;99.90
37594;DHT22;23441;50.856;6.076;2023-04-03T01:47:21;0.50;99.90
37594;DHT22;23441;50.856;6.076;2023-04-03T01:49:47;0.40;99.90
37594;DHT22;23441;50.856;6.076;2023-04-03T01:52:13;0.50;99.90
37594;DHT22;23441;50.856;6.076;2023-04-03T01:54:38;0.50;99.90
37594;DHT22;23441;50.856;6.076;2023-04-03T01:57:04;0.50;99.90
37594;DHT22;23441;50.856;6.076;2023-04-03T01:59:30;0.40;99.90
37594;DHT22;23441;50.856;6.076;2023-04-03T02:01:55;0.40;99.90
37594;DHT22;23441;50.856;6.076;2023-04-03T02:04:21;0.40;99.90
37594;DHT22;23441;50.856;6.076;2023-04-03T02:06:47;0.40;99.90
37594;DHT22;23441;50.856;6.076;2023-04-03T02:09:12;0.40;99.90
37594;DHT22;23441;50.856;6.076;2023-04-03T02:11:38;0.40;99.90
37594;DHT22;23441;50.856;6.076;2023-04-03T02:14:04;0.40;99.90
37594;DHT22;23441;50.856;6.076;2023-04-03T02:16:29;0.40;99.90
37594;DHT22;23441;50.856;6.076;2023-04-03T02:18:56;0.40;99.90
37594;DHT22;23441;50.856;6.076;2023-04-03T02:21:22;0.40;99.90
37594;DHT22;23441;50.856;6.076;2023-04-03T02:23:48;0.50;99.90
37594;DHT22;23441;50.856;6.076;2023-04-03T02:26:15;0.50;99.90
37594;DHT22;23441;50.856;6.076;2023-04-03T02:28:41;0.50;99.90
37594;DHT22;23441;50.856;6.076;2023-04-03T02:31:07;0.50;99.90
37594;DHT22;23441;50.856;6.076;2023-04-03T02:33:33;0.50;99.90
37594;DHT22;23441;50.856;6.076;2023-04-03T02:36:00;0.50;99.90
37594;DHT22;23441;50.856;6.076;2023-04-03T02:38:25;0.40;99.90
37594;DHT22;23441;50.856;6.076;2023-04-03T02:40:51;0.40;99.90
37594;DHT22;23441;50.856;6.076;2023-04-03T02:43:18;0.40;99.90
37594;DHT22;23441;50.856;6.076;2023-04-03T02:45:43;0.40;99.90
37594;DHT22;23441;50.856;6.076;2023-04-03T02:48:09;0.40;99.90
37594;DHT22;23441;50.856;6.076;2023-04-03T02:50:35;0.40;99.90
37594;DHT22;23441;50.856;6.076;2023-04-03T02:53:00;0.30;99.90
37594;DHT22;23441;50.856;6.076;2023-04-03T02:55:26;0.30;99.90
37594;DHT22;23441;50.856;6.076;2023-04-03T02:57:52;0.40;99.90
37594;DHT22;23441;50.856;6.076;2023-04-03T03:00:18;0.40;99.90
37594;DHT22;23441;50.856;6.076;2023-04-03T03:02:44;0.40;99.90
37594;DHT22;23441;50.856;6.076;2023-04-03T03:05:09;0.40;99.90
37594;DHT22;23441;50.856;6.076;2023-04-03T03:07:35;0.40;99.90
37594;DHT22;23441;50.856;6.076;2023-04-03T03:10:01;0.30;99.90
37594;DHT22;23441;50.856;6.076;2023-04-03T03:12:26;0.40;99.90
37594;DHT22;23441;50.856;6.076;2023-04-03T03:14:52;0.40;99.90
37594;DHT22;23441;50.856;6.076;2023-04-03T03:17:17;0.40;99.90
37594;DHT22;23441;50.856;6.076;2023-04-03T03:19:44;0.50;99.90
37594;DHT22;23441;50.856;6.076;2023-04-03T03:22:11;0.40;99.90
37594;DHT22;23441;50.856;6.076;2023-04-03T03:24:36;0.50;99.90
37594;DHT22;23441;50.856;6.076;2023-04-03T03:27:02;0.50;99.90
37594;DHT22;23441;50.856;6.076;2023-04-03T03:29:28;0.50;99.90
37594;DHT22;23441;50.856;6.076;2023-04-03T03:31:53;0.50;99.90
37594;DHT22;23441;50.856;6.076;2023-04-03T03:34:19;0.50;99.90
37594;DHT22;23441;50.856;6.076;2023-04-03T03:36:45;0.50;99.90
37594;DHT22;23441;50.856;6.076;2023-04-03T03:39:10;0.50;99.90
37594;DHT22;23441;50.856;6.076;2023-04-03T03:41:36;0.60;99.90
37594;DHT22;23441;50.856;6.076;2023-04-03T03:44:01;0.50;99.90
37594;DHT22;23441;50.856;6.076;2023-04-03T03:46:27;0.50;99.90
37594;DHT22;23441;50.856;6.076;2023-04-03T03:48:53;0.50;99.90
37594;DHT22;23441;50.856;6.076;2023-04-03T03:51:18;0.40;99.90
37594;DHT22;23441;50.856;6.076;2023-04-03T03:53:44;0.40;99.90
37594;DHT22;23441;50.856;6.076;2023-04-03T03:56:10;0.40;99.90
37594;DHT22;23441;50.856;6.076;2023-04-03T03:58:35;0.40;99.90
37594;DHT22;23441;50.856;6.076;2023-04-03T04:01:03;0.40;99.90
37594;DHT22;23441;50.856;6.076;2023-04-03T04:03:29;0.30;99.90
37594;DHT22;23441;50.856;6.076;2023-04-03T04:05:54;0.30;99.90
37594;DHT22;23441;50.856;6.076;2023-04-03T04:08:20;0.30;99.90
37594;DHT22;23441;50.856;6.076;2023-04-03T04:10:46;0.20;99.90
37594;DHT22;23441;50.856;6.076;2023-04-03T04:13:11;0.20;99.90
37594;DHT22;23441;50.856;6.076;2023-04-03T04:15:37;0.20;99.90
37594;DHT22;23441;50.856;6.076;2023-04-03T04:18:02;0.10;99.90
37594;DHT22;23441;50.856;6.076;2023-04-03T04:20:28;0.10;99.90
37594;DHT22;23441;50.856;6.076;2023-04-03T04:22:54;0.10;99.90
37594;DHT22;23441;50.856;6.076;2023-04-03T04:25:20;0.00;99.90
37594;DHT22;23441;50.856;6.076;2023-04-03T04:27:46;0.00;99.90
37594;DHT22;23441;50.856;6.076;2023-04-03T04:30:12;0.00;99.90
37594;DHT22;23441;50.856;6.076;2023-04-03T04:32:38;0.10;99.90
37594;DHT22;23441;50.856;6.076;2023-04-03T04:35:04;0.10;99.90
37594;DHT22;23441;50.856;6.076;2023-04-03T04:37:30;0.20;99.90
37594;DHT22;23441;50.856;6.076;2023-04-03T04:39:55;0.30;99.90
37594;DHT22;23441;50.856;6.076;2023-04-03T04:42:21;0.40;99.90
37594;DHT22;23441;50.856;6.076;2023-04-03T04:44:47;0.40;99.90
37594;DHT22;23441;50.856;6.076;2023-04-03T04:47:12;0.40;99.90
37594;DHT22;23441;50.856;6.076;2023-04-03T04:49:38;0.40;99.90
37594;DHT22;23441;50.856;6.076;2023-04-03T04:52:04;0.40;99.90
37594;DHT22;23441;50.856;6.076;2023-04-03T04:54:29;0.50;99.90
37594;DHT22;23441;50.856;6.076;2023-04-03T04:56:55;0.40;99.90
37594;DHT22;23441;50.856;6.076;2023-04-03T04:59:20;0.40;99.90
37594;DHT22;23441;50.856;6.076;2023-04-03T05:01:46;0.40;99.90
37594;DHT22;23441;50.856;6.076;2023-04-03T05:04:12;0.40;99.90
37594;DHT22;23441;50.856;6.076;2023-04-03T05:06:40;0.30;99.90
37594;DHT22;23441;50.856;6.076;2023-04-03T05:09:06;0.30;99.90
37594;DHT22;23441;50.856;6.076;2023-04-03T05:11:32;0.20;99.90
37594;DHT22;23441;50.856;6.076;2023-04-03T05:13:58;0.20;99.90
37594;DHT22;23441;50.856;6.076;2023-04-03T05:16:23;0.20;99.90
37594;DHT22;23441;50.856;6.076;2023-04-03T05:18:50;0.20;99.90
37594;DHT22;23441;50.856;6.076;2023-04-03T05:21:15;0.20;99.90
37594;DHT22;23441;50.856;6.076;2023-04-03T05:23:43;0.20;99.90
37594;DHT22;23441;50.856;6.076;2023-04-03T05:26:09;0.20;99.90
37594;DHT22;23441;50.856;6.076;2023-04-03T05:28:35;0.20;99.90
37594;DHT22;23441;50.856;6.076;2023-04-03T05:31:00;0.30;99.90
37594;DHT22;23441;50.856;6.076;2023-04-03T05:33:26;0.30;99.90
37594;DHT22;23441;50.856;6.076;2023-04-03T05:35:53;0.30;99.90
37594;DHT22;23441;50.856;6.076;2023-04-03T05:38:19;0.30;99.90
37594;DHT22;23441;50.856;6.076;2023-04-03T05:40:45;0.30;99.90
37594;DHT22;23441;50.856;6.076;2023-04-03T05:43:12;0.30;99.90
37594;DHT22;23441;50.856;6.076;2023-04-03T05:45:38;0.40;99.90
37594;DHT22;23441;50.856;6.076;2023-04-03T05:48:03;0.40;99.90
37594;DHT22;23441;50.856;6.076;2023-04-03T05:50:29;0.50;99.90
37594;DHT22;23441;50.856;6.076;2023-04-03T05:52:57;0.50;99.90
37594;DHT22;23441;50.856;6.076;2023-04-03T05:55:24;0.50;99.90
37594;DHT22;23441;50.856;6.076;2023-04-03T05:57:49;0.60;99.90
37594;DHT22;23441;50.856;6.076;2023-04-03T06:00:15;0.70;99.90
37594;DHT22;23441;50.856;6.076;2023-04-03T06:02:42;0.70;99.90
37594;DHT22;23441;50.856;6.076;2023-04-03T06:05:08;1.00;99.90
37594;DHT22;23441;50.856;6.076;2023-04-03T06:07:34;1.40;99.90
37594;DHT22;23441;50.856;6.076;2023-04-03T06:10:01;1.60;99.90
37594;DHT22;23441;50.856;6.076;2023-04-03T06:12:27;1.80;99.90
37594;DHT22;23441;50.856;6.076;2023-04-03T06:14:55;1.70;99.90
37594;DHT22;23441;50.856;6.076;2023-04-03T06:17:21;1.70;99.90
37594;DHT22;23441;50.856;6.076;2023-04-03T06:19:46;1.80;99.90
37594;DHT22;23441;50.856;6.076;2023-04-03T06:22:13;1.90;99.90
37594;DHT22;23441;50.856;6.076;2023-04-03T06:24:39;2.10;99.90
37594;DHT22;23441;50.856;6.076;2023-04-03T06:27:05;2.30;99.90
37594;DHT22;23441;50.856;6.076;2023-04-03T06:29:31;2.70;99.90
37594;DHT22;23441;50.856;6.076;2023-04-03T06:31:57;3.30;99.90
37594;DHT22;23441;50.856;6.076;2023-04-03T06:34:22;4.00;99.90
37594;DHT22;23441;50.856;6.076;2023-04-03T06:36:48;4.60;99.90
37594;DHT22;23441;50.856;6.076;2023-04-03T06:39:20;5.00;99.90
37594;DHT22;23441;50.856;6.076;2023-04-03T06:41:47;5.90;99.90
37594;DHT22;23441;50.856;6.076;2023-04-03T06:44:13;6.70;99.90
37594;DHT22;23441;50.856;6.076;2023-04-03T06:46:41;7.40;99.90
37594;DHT22;23441;50.856;6.076;2023-04-03T06:49:07;7.30;99.90
37594;DHT22;23441;50.856;6.076;2023-04-03T06:51:34;7.10;99.90
37594;DHT22;23441;50.856;6.076;2023-04-03T06:54:01;7.80;99.90
37594;DHT22;23441;50.856;6.076;2023-04-03T06:56:27;7.40;99.90
37594;DHT22;23441;50.856;6.076;2023-04-03T06:58:55;7.40;99.90
37594;DHT22;23441;50.856;6.076;2023-04-03T07:01:27;7.70;99.90
37594;DHT22;23441;50.856;6.076;2023-04-03T07:03:54;8.40;99.90
37594;DHT22;23441;50.856;6.076;2023-04-03T07:06:20;7.80;99.90
37594;DHT22;23441;50.856;6.076;2023-04-03T07:08:46;7.90;99.90
37594;DHT22;23441;50.856;6.076;2023-04-03T07:11:13;8.10;99.90
37594;DHT22;23441;50.856;6.076;2023-04-03T07:13:39;8.50;99.90
37594;DHT22;23441;50.856;6.076;2023-04-03T07:16:05;8.80;99.90
37594;DHT22;23441;50.856;6.076;2023-04-03T07:18:34;8.70;99.90
37594;DHT22;23441;50.856;6.076;2023-04-03T07:21:00;8.40;99.90
37594;DHT22;23441;50.856;6.076;2023-04-03T07:23:26;7.70;99.90
37594;DHT22;23441;50.856;6.076;2023-04-03T07:25:53;7.40;99.90
37594;DHT22;23441;50.856;6.076;2023-04-03T07:28:20;7.50;99.90
37594;DHT22;23441;50.856;6.076;2023-04-03T07:30:48;7.60;99.90
37594;DHT22;23441;50.856;6.076;2023-04-03T07:33:15;7.90;99.90
37594;DHT22;23441;50.856;6.076;2023-04-03T07:35:42;8.00;99.90
37594;DHT22;23441;50.856;6.076;2023-04-03T07:38:09;7.90;99.90
37594;DHT22;23441;50.856;6.076;2023-04-03T07:40:35;8.10;99.90
37594;DHT22;23441;50.856;6.076;2023-04-03T07:43:01;8.60;99.90
37594;DHT22;23441;50.856;6.076;2023-04-03T07:45:28;8.90;99.90
37594;DHT22;23441;50.856;6.076;2023-04-03T07:47:54;8.90;99.90
37594;DHT22;23441;50.856;6.076;2023-04-03T07:50:19;9.20;99.90
37594;DHT22;23441;50.856;6.076;2023-04-03T07:52:45;8.50;99.90
37594;DHT22;23441;50.856;6.076;2023-04-03T07:55:11;8.30;99.90
37594;DHT22;23441;50.856;6.076;2023-04-03T07:57:37;8.00;99.90
37594;DHT22;23441;50.856;6.076;2023-04-03T08:00:04;7.80;99.90
37594;DHT22;23441;50.856;6.076;2023-04-03T08:02:30;7.10;99.90
37594;DHT22;23441;50.856;6.076;2023-04-03T08:04:58;6.90;99.90
37594;DHT22;23441;50.856;6.076;2023-04-03T08:07:24;7.00;99.90
37594;DHT22;23441;50.856;6.076;2023-04-03T08:09:50;7.20;99.90
37594;DHT22;23441;50.856;6.076;2023-04-03T08:12:16;7.00;99.90
37594;DHT22;23441;50.856;6.076;2023-04-03T08:14:42;6.70;99.90
37594;DHT22;23441;50.856;6.076;2023-04-03T08:17:09;7.00;99.90
37594;DHT22;23441;50.856;6.076;2023-04-03T08:19:37;7.00;99.90
37594;DHT22;23441;50.856;6.076;2023-04-03T08:22:03;6.90;99.90
37594;DHT22;23441;50.856;6.076;2023-04-03T08:24:30;6.90;99.90
37594;DHT22;23441;50.856;6.076;2023-04-03T08:26:56;6.70;99.90
37594;DHT22;23441;50.856;6.076;2023-04-03T08:29:22;6.70;99.90
37594;DHT22;23441;50.856;6.076;2023-04-03T08:31:48;7.00;99.90
37594;DHT22;23441;50.856;6.076;2023-04-03T08:34:16;7.20;99.90
37594;DHT22;23441;50.856;6.076;2023-04-03T08:36:42;7.00;99.90
37594;DHT22;23441;50.856;6.076;2023-04-03T08:39:08;6.80;99.90
37594;DHT22;23441;50.856;6.076;2023-04-03T08:44:19;7.10;99.90
37594;DHT22;23441;50.856;6.076;2023-04-03T08:49:41;7.10;99.90
37594;DHT22;23441;50.856;6.076;2023-04-03T08:52:15;6.70;99.90
37594;DHT22;23441;50.856;6.076;2023-04-03T08:54:57;6.40;99.90
37594;DHT22;23441;50.856;6.076;2023-04-03T08:57:33;6.30;99.90
37594;DHT22;23441;50.856;6.076;2023-04-03T09:02:56;6.60;99.90
37594;DHT22;23441;50.856;6.076;2023-04-03T09:13:36;5.80;99.90
37594;DHT22;23441;50.856;6.076;2023-04-03T09:16:21;5.70;99.90
37594;DHT22;23441;50.856;6.076;2023-04-03T09:21:37;5.60;99.90
37594;DHT22;23441;50.856;6.076;2023-04-03T09:24:06;5.50;99.90
37594;DHT22;23441;50.856;6.076;2023-04-03T09:26:56;5.50;99.90
37594;DHT22;23441;50.856;6.076;2023-04-03T09:29:25;5.40;99.90
37594;DHT22;23441;50.856;6.076;2023-04-03T09:32:00;5.50;99.90
37594;DHT22;23441;50.856;6.076;2023-04-03T09:34:36;5.50;99.90
37594;DHT22;23441;50.856;6.076;2023-04-03T09:37:03;5.50;99.90
37594;DHT22;23441;50.856;6.076;2023-04-03T09:39:33;5.40;99.90
37594;DHT22;23441;50.856;6.076;2023-04-03T09:42:19;5.30;99.90
37594;DHT22;23441;50.856;6.076;2023-04-03T09:44:55;5.40;99.90
37594;DHT22;23441;50.856;6.076;2023-04-03T09:47:36;5.40;99.90
37594;DHT22;23441;50.856;6.076;2023-04-03T09:52:41;5.70;99.90
37594;DHT22;23441;50.856;6.076;2023-04-03T09:55:21;5.70;99.90
37594;DHT22;23441;50.856;6.076;2023-04-03T09:57:59;5.80;99.90
37594;DHT22;23441;50.856;6.076;2023-04-03T10:02:57;6.00;99.90
37594;DHT22;23441;50.856;6.076;2023-04-03T10:05:33;6.10;99.90
37594;DHT22;23441;50.856;6.076;2023-04-03T10:10:41;6.00;99.90
37594;DHT22;23441;50.856;6.076;2023-04-03T10:13:19;6.10;99.90
37594;DHT22;23441;50.856;6.076;2023-04-03T10:15:51;6.10;99.90
37594;DHT22;23441;50.856;6.076;2023-04-03T10:18:46;6.30;99.90
37594;DHT22;23441;50.856;6.076;2023-04-03T10:21:26;6.30;99.90
37594;DHT22;23441;50.856;6.076;2023-04-03T10:26:57;6.40;99.90
37594;DHT22;23441;50.856;6.076;2023-04-03T10:29:59;6.40;99.90
37594;DHT22;23441;50.856;6.076;2023-04-03T10:38:40;6.60;99.90
37594;DHT22;23441;50.856;6.076;2023-04-03T10:44:34;6.70;99.90
37594;DHT22;23441;50.856;6.076;2023-04-03T10:49:45;6.70;99.90
37594;DHT22;23441;50.856;6.076;2023-04-03T10:52:23;6.90;99.90
37594;DHT22;23441;50.856;6.076;2023-04-03T10:57:28;7.00;96.80
37594;DHT22;23441;50.856;6.076;2023-04-03T11:00:18;6.90;99.40
37594;DHT22;23441;50.856;6.076;2023-04-03T11:03:00;7.10;99.00
37594;DHT22;23441;50.856;6.076;2023-04-03T11:05:36;7.00;97.80
37594;DHT22;23441;50.856;6.076;2023-04-03T11:10:42;7.00;99.70
37594;DHT22;23441;50.856;6.076;2023-04-03T11:15:42;7.40;96.70
37594;DHT22;23441;50.856;6.076;2023-04-03T11:18:17;7.90;96.40
37594;DHT22;23441;50.856;6.076;2023-04-03T11:21:12;8.50;97.10
37594;DHT22;23441;50.856;6.076;2023-04-03T11:23:40;8.70;96.90
37594;DHT22;23441;50.856;6.076;2023-04-03T11:26:11;8.90;94.80
37594;DHT22;23441;50.856;6.076;2023-04-03T11:28:38;8.80;95.10
37594;DHT22;23441;50.856;6.076;2023-04-03T11:34:05;8.70;94.50
37594;DHT22;23441;50.856;6.076;2023-04-03T11:36:43;8.60;94.60
37594;DHT22;23441;50.856;6.076;2023-04-03T11:39:24;8.60;94.80
37594;DHT22;23441;50.856;6.076;2023-04-03T11:41:51;8.80;95.60
37594;DHT22;23441;50.856;6.076;2023-04-03T11:44:37;8.70;92.90
37594;DHT22;23441;50.856;6.076;2023-04-03T11:47:05;8.60;94.60
37594;DHT22;23441;50.856;6.076;2023-04-03T12:05:52;8.20;92.40
37594;DHT22;23441;50.856;6.076;2023-04-03T12:11:31;8.60;95.90
37594;DHT22;23441;50.856;6.076;2023-04-03T12:19:02;9.10;94.70
37594;DHT22;23441;50.856;6.076;2023-04-03T12:35:36;9.60;88.80
37594;DHT22;23441;50.856;6.076;2023-04-03T12:40:46;9.80;91.80
37594;DHT22;23441;50.856;6.076;2023-04-03T12:46:07;9.80;92.20
37594;DHT22;23441;50.856;6.076;2023-04-03T12:48:57;9.80;90.00
37594;DHT22;23441;50.856;6.076;2023-04-03T12:51:42;10.00;92.90
37594;DHT22;23441;50.856;6.076;2023-04-03T12:56:49;9.60;90.30
37594;DHT22;23441;50.856;6.076;2023-04-03T12:59:24;9.90;92.00
37594;DHT22;23441;50.856;6.076;2023-04-03T13:01:58;10.00;89.80
37594;DHT22;23441;50.856;6.076;2023-04-03T13:04:25;10.10;91.60
37594;DHT22;23441;50.856;6.076;2023-04-03T13:06:52;10.30;91.50
37594;DHT22;23441;50.856;6.076;2023-04-03T13:09:27;10.40;87.40
37594;DHT22;23441;50.856;6.076;2023-04-03T13:12:13;10.20;87.10
37594;DHT22;23441;50.856;6.076;2023-04-03T13:14:39;10.10;87.50
37594;DHT22;23441;50.856;6.076;2023-04-03T13:17:10;10.30;85.60
37594;DHT22;23441;50.856;6.076;2023-04-03T13:19:38;10.30;84.80
37594;DHT22;23441;50.856;6.076;2023-04-03T13:22:16;10.30;86.20
37594;DHT22;23441;50.856;6.076;2023-04-03T13:24:50;10.60;90.40
37594;DHT22;23441;50.856;6.076;2023-04-03T13:27:17;10.50;88.60
37594;DHT22;23441;50.856;6.076;2023-04-03T13:29:44;10.50;84.40
37594;DHT22;23441;50.856;6.076;2023-04-03T13:32:22;10.20;81.10
37594;DHT22;23441;50.856;6.076;2023-04-03T13:34:49;10.10;90.60
37594;DHT22;23441;50.856;6.076;2023-04-03T13:40:01;10.60;84.30
37594;DHT22;23441;50.856;6.076;2023-04-03T13:42:32;10.40;87.80
37594;DHT22;23441;50.856;6.076;2023-04-03T13:45:31;10.50;87.60
37594;DHT22;23441;50.856;6.076;2023-04-03T13:48:18;10.50;87.90
37594;DHT22;23441;50.856;6.076;2023-04-03T13:51:27;10.50;91.00
37594;DHT22;23441;50.856;6.076;2023-04-03T13:53:53;10.70;90.30
37594;DHT22;23441;50.856;6.076;2023-04-03T13:56:21;10.40;90.40
37594;DHT22;23441;50.856;6.076;2023-04-03T13:59:18;10.20;87.90
37594;DHT22;23441;50.856;6.076;2023-04-03T14:01:46;10.40;91.20
37594;DHT22;23441;50.856;6.076;2023-04-03T14:04:23;10.60;90.50
37594;DHT22;23441;50.856;6.076;2023-04-03T14:06:49;10.40;84.30
37594;DHT22;23441;50.856;6.076;2023-04-03T14:09:17;9.90;83.00
37594;DHT22;23441;50.856;6.076;2023-04-03T14:11:44;9.80;83.60
37594;DHT22;23441;50.856;6.076;2023-04-03T14:14:31;9.90;87.40
37594;DHT22;23441;50.856;6.076;2023-04-03T14:16:59;9.90;84.60
37594;DHT22;23441;50.856;6.076;2023-04-03T14:19:28;10.00;84.50
37594;DHT22;23441;50.856;6.076;2023-04-03T14:21:55;10.10;84.00
37594;DHT22;23441;50.856;6.076;2023-04-03T14:24:22;10.10;83.30
37594;DHT22;23441;50.856;6.076;2023-04-03T14:26:49;10.00;82.50
37594;DHT22;23441;50.856;6.076;2023-04-03T14:29:15;10.10;83.60
37594;DHT22;23441;50.856;6.076;2023-04-03T14:31:43;10.10;81.60
37594;DHT22;23441;50.856;6.076;2023-04-03T14:34:14;10.10;83.50
37594;DHT22;23441;50.856;6.076;2023-04-03T14:36:43;10.10;79.00
37594;DHT22;23441;50.856;6.076;2023-04-03T14:39:16;9.60;80.30
37594;DHT22;23441;50.856;6.076;2023-04-03T14:41:43;9.60;82.20
37594;DHT22;23441;50.856;6.076;2023-04-03T14:44:08;9.70;82.90
37594;DHT22;23441;50.856;6.076;2023-04-03T14:46:40;9.50;81.40
37594;DHT22;23441;50.856;6.076;2023-04-03T14:49:15;9.70;80.40
37594;DHT22;23441;50.856;6.076;2023-04-03T14:51:41;9.70;83.60
37594;DHT22;23441;50.856;6.076;2023-04-03T14:54:14;9.90;82.80
37594;DHT22;23441;50.856;6.076;2023-04-03T14:56:40;9.70;80.60
37594;DHT22;23441;50.856;6.076;2023-04-03T14:59:09;9.70;81.60
37594;DHT22;23441;50.856;6.076;2023-04-03T15:01:37;9.70;81.70
37594;DHT22;23441;50.856;6.076;2023-04-03T15:04:18;9.70;82.60
37594;DHT22;23441;50.856;6.076;2023-04-03T15:06:45;9.80;84.80
37594;DHT22;23441;50.856;6.076;2023-04-03T15:09:19;9.80;81.90
37594;DHT22;23441;50.856;6.076;2023-04-03T15:11:47;9.80;78.60
37594;DHT22;23441;50.856;6.076;2023-04-03T15:14:12;9.60;82.10
37594;DHT22;23441;50.856;6.076;2023-04-03T15:16:38;9.60;80.40
37594;DHT22;23441;50.856;6.076;2023-04-03T15:19:04;9.40;79.00
37594;DHT22;23441;50.856;6.076;2023-04-03T15:21:30;9.40;80.70
37594;DHT22;23441;50.856;6.076;2023-04-03T15:23:56;9.40;82.70
37594;DHT22;23441;50.856;6.076;2023-04-03T15:26:22;9.60;80.80
37594;DHT22;23441;50.856;6.076;2023-04-03T15:28:47;9.40;84.60
37594;DHT22;23441;50.856;6.076;2023-04-03T15:31:13;9.50;82.60
37594;DHT22;23441;50.856;6.076;2023-04-03T15:33:39;9.50;80.70
37594;DHT22;23441;50.856;6.076;2023-04-03T15:36:05;9.40;83.30
37594;DHT22;23441;50.856;6.076;2023-04-03T15:38:31;9.40;86.10
37594;DHT22;23441;50.856;6.076;2023-04-03T15:40:57;9.50;82.10
37594;DHT22;23441;50.856;6.076;2023-04-03T15:43:23;9.50;86.90
37594;DHT22;23441;50.856;6.076;2023-04-03T15:45:49;9.50;85.70
37594;DHT22;23441;50.856;6.076;2023-04-03T15:48:16;9.50;86.20
37594;DHT22;23441;50.856;6.076;2023-04-03T15:50:42;9.50;83.90
37594;DHT22;23441;50.856;6.076;2023-04-03T15:53:08;9.40;85.40
37594;DHT22;23441;50.856;6.076;2023-04-03T15:55:36;9.20;84.20
37594;DHT22;23441;50.856;6.076;2023-04-03T15:58:03;9.10;83.60
37594;DHT22;23441;50.856;6.076;2023-04-03T16:00:29;9.00;82.50
37594;DHT22;23441;50.856;6.076;2023-04-03T16:03:21;8.90;84.40
37594;DHT22;23441;50.856;6.076;2023-04-03T16:05:48;9.00;83.90
37594;DHT22;23441;50.856;6.076;2023-04-03T16:08:14;8.90;85.40
37594;DHT22;23441;50.856;6.076;2023-04-03T16:10:40;8.90;85.60
37594;DHT22;23441;50.856;6.076;2023-04-03T16:13:06;8.90;86.80
37594;DHT22;23441;50.856;6.076;2023-04-03T16:15:33;8.90;83.90
37594;DHT22;23441;50.856;6.076;2023-04-03T16:18:00;8.80;86.30
37594;DHT22;23441;50.856;6.076;2023-04-03T16:20:26;8.70;85.20
37594;DHT22;23441;50.856;6.076;2023-04-03T16:22:52;8.60;84.20
37594;DHT22;23441;50.856;6.076;2023-04-03T16:25:19;8.50;87.10
37594;DHT22;23441;50.856;6.076;2023-04-03T16:27:44;8.50;87.80
37594;DHT22;23441;50.856;6.076;2023-04-03T16:30:11;8.50;86.30
37594;DHT22;23441;50.856;6.076;2023-04-03T16:32:38;8.40;88.60
37594;DHT22;23441;50.856;6.076;2023-04-03T16:35:04;8.40;87.90
37594;DHT22;23441;50.856;6.076;2023-04-03T16:37:30;8.30;90.30
37594;DHT22;23441;50.856;6.076;2023-04-03T16:39:56;8.30;89.60
37594;DHT22;23441;50.856;6.076;2023-04-03T16:42:24;8.30;90.10
37594;DHT22;23441;50.856;6.076;2023-04-03T16:44:50;8.30;90.20
37594;DHT22;23441;50.856;6.076;2023-04-03T16:47:16;8.20;90.20
37594;DHT22;23441;50.856;6.076;2023-04-03T16:49:45;8.20;90.00
37594;DHT22;23441;50.856;6.076;2023-04-03T16:52:11;8.10;90.50
37594;DHT22;23441;50.856;6.076;2023-04-03T16:54:36;8.10;90.70
37594;DHT22;23441;50.856;6.076;2023-04-03T16:57:02;8.00;90.10
37594;DHT22;23441;50.856;6.076;2023-04-03T16:59:28;7.90;90.90
37594;DHT22;23441;50.856;6.076;2023-04-03T17:01:54;7.80;90.60
37594;DHT22;23441;50.856;6.076;2023-04-03T17:04:20;7.80;91.20
37594;DHT22;23441;50.856;6.076;2023-04-03T17:06:46;7.80;91.00
37594;DHT22;23441;50.856;6.076;2023-04-03T17:09:11;7.80;90.80
37594;DHT22;23441;50.856;6.076;2023-04-03T17:11:37;7.70;90.90
37594;DHT22;23441;50.856;6.076;2023-04-03T17:14:03;7.70;91.40
37594;DHT22;23441;50.856;6.076;2023-04-03T17:16:30;7.60;91.30
37594;DHT22;23441;50.856;6.076;2023-04-03T17:18:57;7.60;92.20
37594;DHT22;23441;50.856;6.076;2023-04-03T17:21:23;7.50;91.60
37594;DHT22;23441;50.856;6.076;2023-04-03T17:23:52;7.50;92.20
37594;DHT22;23441;50.856;6.076;2023-04-03T17:26:20;7.40;91.70
37594;DHT22;23441;50.856;6.076;2023-04-03T17:28:46;7.30;92.60
37594;DHT22;23441;50.856;6.076;2023-04-03T17:31:12;7.20;92.60
37594;DHT22;23441;50.856;6.076;2023-04-03T17:33:37;7.10;92.60
37594;DHT22;23441;50.856;6.076;2023-04-03T17:36:03;7.00;92.50
37594;DHT22;23441;50.856;6.076;2023-04-03T17:38:33;7.00;92.80
37594;DHT22;23441;50.856;6.076;2023-04-03T17:41:00;7.00;92.80
37594;DHT22;23441;50.856;6.076;2023-04-03T17:43:26;6.90;93.00
37594;DHT22;23441;50.856;6.076;2023-04-03T17:45:53;6.80;93.10